sensor_id;sensor_type;location;lat;lon;timestamp;temperature;humidity
33077;DHT22;38790;51.964;5.924;2022-08-19T00:01:53;19.10;99.90
33077;DHT22;38790;51.964;5.924;2022-08-19T00:04:23;19.10;99.90
33077;DHT22;38790;51.964;5.924;2022-08-19T00:06:50;19.10;99.90
33077;DHT22;38790;51.964;5.924;2022-08-19T00:09:19;19.00;99.90
33077;DHT22;38790;51.964;5.924;2022-08-19T00:11:46;18.90;99.90
33077;DHT22;38790;51.964;5.924;2022-08-19T00:14:14;18.80;99.90
33077;DHT22;38790;51.964;5.924;2022-08-19T00:16:42;18.70;99.90
33077;DHT22;38790;51.964;5.924;2022-08-19T00:19:09;18.70;99.90
33077;DHT22;38790;51.964;5.924;2022-08-19T00:21:36;18.60;99.90
33077;DHT22;38790;51.964;5.924;2022-08-19T00:24:07;18.60;99.90
33077;DHT22;38790;51.964;5.924;2022-08-19T00:26:34;18.60;99.90
33077;DHT22;38790;51.964;5.924;2022-08-19T00:29:02;18.60;99.90
33077;DHT22;38790;51.964;5.924;2022-08-19T00:31:29;18.60;99.90
33077;DHT22;38790;51.964;5.924;2022-08-19T00:33:57;18.60;99.90
33077;DHT22;38790;51.964;5.924;2022-08-19T00:36:23;18.60;99.90
33077;DHT22;38790;51.964;5.924;2022-08-19T00:38:49;18.60;99.90
33077;DHT22;38790;51.964;5.924;2022-08-19T00:41:19;18.60;99.90
33077;DHT22;38790;51.964;5.924;2022-08-19T00:44:08;18.60;99.90
33077;DHT22;38790;51.964;5.924;2022-08-19T00:46:37;18.60;99.90
33077;DHT22;38790;51.964;5.924;2022-08-19T00:49:10;18.60;99.90
33077;DHT22;38790;51.964;5.924;2022-08-19T00:51:42;18.60;99.90
33077;DHT22;38790;51.964;5.924;2022-08-19T00:54:10;18.50;99.90
33077;DHT22;38790;51.964;5.924;2022-08-19T00:56:37;18.60;99.90
33077;DHT22;38790;51.964;5.924;2022-08-19T00:59:04;18.50;99.90
33077;DHT22;38790;51.964;5.924;2022-08-19T01:01:39;18.40;99.90
33077;DHT22;38790;51.964;5.924;2022-08-19T01:04:06;18.40;99.90
33077;DHT22;38790;51.964;5.924;2022-08-19T01:06:33;18.30;99.90
33077;DHT22;38790;51.964;5.924;2022-08-19T01:09:00;18.30;99.90
33077;DHT22;38790;51.964;5.924;2022-08-19T01:11:27;18.20;99.90
33077;DHT22;38790;51.964;5.924;2022-08-19T01:13:54;18.20;99.90
33077;DHT22;38790;51.964;5.924;2022-08-19T01:16:24;18.20;99.90
33077;DHT22;38790;51.964;5.924;2022-08-19T01:18:51;18.20;99.90
33077;DHT22;38790;51.964;5.924;2022-08-19T01:23:48;18.20;99.90
33077;DHT22;38790;51.964;5.924;2022-08-19T01:26:18;18.10;99.90
33077;DHT22;38790;51.964;5.924;2022-08-19T01:28:46;18.10;99.90
33077;DHT22;38790;51.964;5.924;2022-08-19T01:31:18;18.00;99.90
33077;DHT22;38790;51.964;5.924;2022-08-19T01:33:45;18.00;99.90
33077;DHT22;38790;51.964;5.924;2022-08-19T01:36:23;18.00;99.90
33077;DHT22;38790;51.964;5.924;2022-08-19T01:38:51;17.90;99.90
33077;DHT22;38790;51.964;5.924;2022-08-19T01:41:18;17.90;99.90
33077;DHT22;38790;51.964;5.924;2022-08-19T01:43:44;17.90;99.90
33077;DHT22;38790;51.964;5.924;2022-08-19T01:46:11;18.00;99.90
33077;DHT22;38790;51.964;5.924;2022-08-19T01:48:39;18.00;99.90
33077;DHT22;38790;51.964;5.924;2022-08-19T01:51:08;18.20;99.90
33077;DHT22;38790;51.964;5.924;2022-08-19T01:53:35;18.20;99.90
33077;DHT22;38790;51.964;5.924;2022-08-19T01:56:02;18.20;99.90
33077;DHT22;38790;51.964;5.924;2022-08-19T01:58:36;18.30;99.90
33077;DHT22;38790;51.964;5.924;2022-08-19T02:01:05;18.40;99.90
33077;DHT22;38790;51.964;5.924;2022-08-19T02:03:31;18.40;99.90
33077;DHT22;38790;51.964;5.924;2022-08-19T02:06:02;18.40;99.90
33077;DHT22;38790;51.964;5.924;2022-08-19T02:08:29;18.40;99.90
33077;DHT22;38790;51.964;5.924;2022-08-19T02:10:56;18.40;99.90
33077;DHT22;38790;51.964;5.924;2022-08-19T02:13:23;18.50;99.90
33077;DHT22;38790;51.964;5.924;2022-08-19T02:15:49;18.50;99.90
33077;DHT22;38790;51.964;5.924;2022-08-19T02:18:15;18.50;99.90
33077;DHT22;38790;51.964;5.924;2022-08-19T02:20:43;18.60;99.90
33077;DHT22;38790;51.964;5.924;2022-08-19T02:23:10;18.50;99.90
33077;DHT22;38790;51.964;5.924;2022-08-19T02:25:37;18.50;99.90
33077;DHT22;38790;51.964;5.924;2022-08-19T02:28:04;18.50;99.90
33077;DHT22;38790;51.964;5.924;2022-08-19T02:30:31;18.40;99.90
33077;DHT22;38790;51.964;5.924;2022-08-19T02:32:57;18.40;99.90
33077;DHT22;38790;51.964;5.924;2022-08-19T02:35:24;18.30;99.90
33077;DHT22;38790;51.964;5.924;2022-08-19T02:37:50;18.20;99.90
33077;DHT22;38790;51.964;5.924;2022-08-19T02:40:35;18.10;99.90
33077;DHT22;38790;51.964;5.924;2022-08-19T02:43:07;18.10;99.90
33077;DHT22;38790;51.964;5.924;2022-08-19T02:45:35;18.00;99.90
33077;DHT22;38790;51.964;5.924;2022-08-19T02:48:02;18.00;99.90
33077;DHT22;38790;51.964;5.924;2022-08-19T02:50:28;17.90;99.90
33077;DHT22;38790;51.964;5.924;2022-08-19T02:52:54;17.90;99.90
33077;DHT22;38790;51.964;5.924;2022-08-19T02:55:20;17.90;99.90
33077;DHT22;38790;51.964;5.924;2022-08-19T02:57:47;18.00;99.90
33077;DHT22;38790;51.964;5.924;2022-08-19T03:00:14;18.00;99.90
33077;DHT22;38790;51.964;5.924;2022-08-19T03:02:40;17.90;99.90
33077;DHT22;38790;51.964;5.924;2022-08-19T03:05:07;17.80;99.90
33077;DHT22;38790;51.964;5.924;2022-08-19T03:07:35;17.70;99.90
33077;DHT22;38790;51.964;5.924;2022-08-19T03:10:02;17.70;99.90
33077;DHT22;38790;51.964;5.924;2022-08-19T03:12:29;17.70;99.90
33077;DHT22;38790;51.964;5.924;2022-08-19T03:14:55;17.60;99.90
33077;DHT22;38790;51.964;5.924;2022-08-19T03:17:22;17.60;99.90
33077;DHT22;38790;51.964;5.924;2022-08-19T03:19:48;17.60;99.90
33077;DHT22;38790;51.964;5.924;2022-08-19T03:22:14;17.60;99.90
33077;DHT22;38790;51.964;5.924;2022-08-19T03:24:40;17.60;99.90
33077;DHT22;38790;51.964;5.924;2022-08-19T03:27:06;17.60;99.90
33077;DHT22;38790;51.964;5.924;2022-08-19T03:29:32;17.60;99.90
33077;DHT22;38790;51.964;5.924;2022-08-19T03:32:00;17.70;99.90
33077;DHT22;38790;51.964;5.924;2022-08-19T03:34:29;17.70;99.90
33077;DHT22;38790;51.964;5.924;2022-08-19T03:36:57;17.70;99.90
33077;DHT22;38790;51.964;5.924;2022-08-19T03:39:24;17.70;99.90
33077;DHT22;38790;51.964;5.924;2022-08-19T03:41:52;17.70;99.90
33077;DHT22;38790;51.964;5.924;2022-08-19T03:44:20;17.70;99.90
33077;DHT22;38790;51.964;5.924;2022-08-19T03:46:50;17.60;99.90
33077;DHT22;38790;51.964;5.924;2022-08-19T03:49:18;17.50;99.90
33077;DHT22;38790;51.964;5.924;2022-08-19T03:51:46;17.50;99.90
33077;DHT22;38790;51.964;5.924;2022-08-19T03:54:14;17.50;99.90
33077;DHT22;38790;51.964;5.924;2022-08-19T03:56:41;17.50;99.90
33077;DHT22;38790;51.964;5.924;2022-08-19T03:59:12;17.40;99.90
33077;DHT22;38790;51.964;5.924;2022-08-19T04:01:39;17.50;99.90
33077;DHT22;38790;51.964;5.924;2022-08-19T04:04:05;17.50;99.90
33077;DHT22;38790;51.964;5.924;2022-08-19T04:06:34;17.50;99.90
33077;DHT22;38790;51.964;5.924;2022-08-19T04:09:03;17.50;99.90
33077;DHT22;38790;51.964;5.924;2022-08-19T04:11:39;17.50;99.90
33077;DHT22;38790;51.964;5.924;2022-08-19T04:14:12;17.40;99.90
33077;DHT22;38790;51.964;5.924;2022-08-19T04:16:38;17.40;99.90
33077;DHT22;38790;51.964;5.924;2022-08-19T04:19:05;17.30;99.90
33077;DHT22;38790;51.964;5.924;2022-08-19T04:21:32;17.20;99.90
33077;DHT22;38790;51.964;5.924;2022-08-19T04:23:58;17.10;99.90
33077;DHT22;38790;51.964;5.924;2022-08-19T04:26:30;17.00;99.90
33077;DHT22;38790;51.964;5.924;2022-08-19T04:29:03;16.90;99.90
33077;DHT22;38790;51.964;5.924;2022-08-19T04:31:31;16.90;99.90
33077;DHT22;38790;51.964;5.924;2022-08-19T04:34:01;16.90;99.90
33077;DHT22;38790;51.964;5.924;2022-08-19T04:36:30;17.00;99.90
33077;DHT22;38790;51.964;5.924;2022-08-19T04:38:59;17.00;99.90
33077;DHT22;38790;51.964;5.924;2022-08-19T04:41:25;17.00;99.90
33077;DHT22;38790;51.964;5.924;2022-08-19T04:44:10;17.00;99.90
33077;DHT22;38790;51.964;5.924;2022-08-19T04:46:37;17.10;99.90
33077;DHT22;38790;51.964;5.924;2022-08-19T04:49:04;17.10;99.90
33077;DHT22;38790;51.964;5.924;2022-08-19T04:51:32;17.10;99.90
33077;DHT22;38790;51.964;5.924;2022-08-19T04:56:35;17.00;99.90
33077;DHT22;38790;51.964;5.924;2022-08-19T04:59:01;17.10;99.90
33077;DHT22;38790;51.964;5.924;2022-08-19T05:01:32;17.10;99.90
33077;DHT22;38790;51.964;5.924;2022-08-19T05:04:00;17.10;99.90
33077;DHT22;38790;51.964;5.924;2022-08-19T05:06:31;17.20;99.90
33077;DHT22;38790;51.964;5.924;2022-08-19T05:09:01;17.20;99.90
33077;DHT22;38790;51.964;5.924;2022-08-19T05:11:32;17.20;99.90
33077;DHT22;38790;51.964;5.924;2022-08-19T05:13:58;17.20;99.90
33077;DHT22;38790;51.964;5.924;2022-08-19T05:16:26;17.30;99.90
33077;DHT22;38790;51.964;5.924;2022-08-19T05:18:53;17.40;99.90
33077;DHT22;38790;51.964;5.924;2022-08-19T05:21:40;17.40;99.90
33077;DHT22;38790;51.964;5.924;2022-08-19T05:24:26;17.50;99.90
33077;DHT22;38790;51.964;5.924;2022-08-19T05:26:54;17.50;99.90
33077;DHT22;38790;51.964;5.924;2022-08-19T05:29:25;17.60;99.90
33077;DHT22;38790;51.964;5.924;2022-08-19T05:31:53;17.70;99.90
33077;DHT22;38790;51.964;5.924;2022-08-19T05:34:20;17.80;99.90
33077;DHT22;38790;51.964;5.924;2022-08-19T05:36:49;17.90;99.90
33077;DHT22;38790;51.964;5.924;2022-08-19T05:39:18;18.10;99.90
33077;DHT22;38790;51.964;5.924;2022-08-19T05:41:50;18.10;99.90
33077;DHT22;38790;51.964;5.924;2022-08-19T05:44:19;18.20;99.90
33077;DHT22;38790;51.964;5.924;2022-08-19T05:46:46;18.20;99.90
33077;DHT22;38790;51.964;5.924;2022-08-19T05:49:20;18.30;99.90
33077;DHT22;38790;51.964;5.924;2022-08-19T05:51:47;18.10;99.90
33077;DHT22;38790;51.964;5.924;2022-08-19T05:54:13;18.20;99.90
33077;DHT22;38790;51.964;5.924;2022-08-19T05:56:41;18.20;99.90
33077;DHT22;38790;51.964;5.924;2022-08-19T05:59:09;18.30;99.90
33077;DHT22;38790;51.964;5.924;2022-08-19T06:01:38;18.20;99.90
33077;DHT22;38790;51.964;5.924;2022-08-19T06:04:05;18.30;99.90
33077;DHT22;38790;51.964;5.924;2022-08-19T06:06:33;18.40;99.90
33077;DHT22;38790;51.964;5.924;2022-08-19T06:09:05;18.60;99.90
33077;DHT22;38790;51.964;5.924;2022-08-19T06:11:47;18.80;99.90
33077;DHT22;38790;51.964;5.924;2022-08-19T06:14:16;18.90;99.90
33077;DHT22;38790;51.964;5.924;2022-08-19T06:16:44;19.00;99.90
33077;DHT22;38790;51.964;5.924;2022-08-19T06:19:16;19.10;99.90
33077;DHT22;38790;51.964;5.924;2022-08-19T06:21:45;19.20;99.90
33077;DHT22;38790;51.964;5.924;2022-08-19T06:24:15;19.30;99.90
33077;DHT22;38790;51.964;5.924;2022-08-19T06:26:45;19.50;99.90
33077;DHT22;38790;51.964;5.924;2022-08-19T06:29:14;19.70;99.90
33077;DHT22;38790;51.964;5.924;2022-08-19T06:31:43;19.80;99.90
33077;DHT22;38790;51.964;5.924;2022-08-19T06:34:10;20.00;99.90
33077;DHT22;38790;51.964;5.924;2022-08-19T06:36:40;20.30;99.90
33077;DHT22;38790;51.964;5.924;2022-08-19T06:39:09;20.60;99.90
33077;DHT22;38790;51.964;5.924;2022-08-19T06:41:38;20.90;99.90
33077;DHT22;38790;51.964;5.924;2022-08-19T06:44:05;21.00;99.90
33077;DHT22;38790;51.964;5.924;2022-08-19T06:46:31;21.10;99.90
33077;DHT22;38790;51.964;5.924;2022-08-19T06:48:58;21.30;99.90
33077;DHT22;38790;51.964;5.924;2022-08-19T06:51:24;21.60;99.90
33077;DHT22;38790;51.964;5.924;2022-08-19T06:53:52;21.40;99.90
33077;DHT22;38790;51.964;5.924;2022-08-19T06:56:22;21.30;99.90
33077;DHT22;38790;51.964;5.924;2022-08-19T06:58:51;21.10;99.90
33077;DHT22;38790;51.964;5.924;2022-08-19T07:01:19;20.90;99.90
33077;DHT22;38790;51.964;5.924;2022-08-19T07:03:46;21.00;99.90
33077;DHT22;38790;51.964;5.924;2022-08-19T07:06:15;21.00;99.90
33077;DHT22;38790;51.964;5.924;2022-08-19T07:08:47;20.90;99.90
33077;DHT22;38790;51.964;5.924;2022-08-19T07:11:16;20.90;99.90
33077;DHT22;38790;51.964;5.924;2022-08-19T07:13:46;20.90;99.90
33077;DHT22;38790;51.964;5.924;2022-08-19T07:16:16;20.90;99.90
33077;DHT22;38790;51.964;5.924;2022-08-19T07:18:43;20.80;99.90
33077;DHT22;38790;51.964;5.924;2022-08-19T07:21:13;20.80;99.90
33077;DHT22;38790;51.964;5.924;2022-08-19T07:23:40;20.60;99.90
33077;DHT22;38790;51.964;5.924;2022-08-19T07:26:18;20.50;99.90
33077;DHT22;38790;51.964;5.924;2022-08-19T07:28:46;20.50;99.90
33077;DHT22;38790;51.964;5.924;2022-08-19T07:31:16;20.60;99.90
33077;DHT22;38790;51.964;5.924;2022-08-19T07:33:45;20.60;99.90
33077;DHT22;38790;51.964;5.924;2022-08-19T07:36:14;20.70;99.90
33077;DHT22;38790;51.964;5.924;2022-08-19T07:38:42;20.70;99.90
33077;DHT22;38790;51.964;5.924;2022-08-19T07:41:11;20.70;99.90
33077;DHT22;38790;51.964;5.924;2022-08-19T07:43:38;20.90;99.90
33077;DHT22;38790;51.964;5.924;2022-08-19T07:46:05;21.10;99.90
33077;DHT22;38790;51.964;5.924;2022-08-19T07:48:32;21.40;99.90
33077;DHT22;38790;51.964;5.924;2022-08-19T07:51:03;21.80;99.90
33077;DHT22;38790;51.964;5.924;2022-08-19T07:53:32;22.10;99.90
33077;DHT22;38790;51.964;5.924;2022-08-19T07:56:01;22.70;99.90
33077;DHT22;38790;51.964;5.924;2022-08-19T07:58:32;23.00;99.90
33077;DHT22;38790;51.964;5.924;2022-08-19T08:00:58;23.20;99.90
33077;DHT22;38790;51.964;5.924;2022-08-19T08:03:26;23.40;99.90
33077;DHT22;38790;51.964;5.924;2022-08-19T08:06:13;23.50;99.90
33077;DHT22;38790;51.964;5.924;2022-08-19T08:09:00;23.70;99.90
33077;DHT22;38790;51.964;5.924;2022-08-19T08:11:48;23.80;99.90
33077;DHT22;38790;51.964;5.924;2022-08-19T08:14:17;23.80;99.90
33077;DHT22;38790;51.964;5.924;2022-08-19T08:16:44;23.70;99.90
33077;DHT22;38790;51.964;5.924;2022-08-19T08:19:12;23.80;99.90
33077;DHT22;38790;51.964;5.924;2022-08-19T08:21:40;23.90;99.90
33077;DHT22;38790;51.964;5.924;2022-08-19T08:24:07;23.70;99.90
33077;DHT22;38790;51.964;5.924;2022-08-19T08:26:33;23.80;99.90
33077;DHT22;38790;51.964;5.924;2022-08-19T08:28:59;23.90;99.90
33077;DHT22;38790;51.964;5.924;2022-08-19T08:31:25;23.80;99.90
33077;DHT22;38790;51.964;5.924;2022-08-19T08:33:52;23.90;99.90
33077;DHT22;38790;51.964;5.924;2022-08-19T08:36:18;24.40;99.90
33077;DHT22;38790;51.964;5.924;2022-08-19T08:38:45;24.60;99.90
33077;DHT22;38790;51.964;5.924;2022-08-19T08:43:47;25.10;99.90
33077;DHT22;38790;51.964;5.924;2022-08-19T08:49:20;25.30;99.90
33077;DHT22;38790;51.964;5.924;2022-08-19T08:51:52;25.40;99.90
33077;DHT22;38790;51.964;5.924;2022-08-19T08:54:24;25.40;99.90
33077;DHT22;38790;51.964;5.924;2022-08-19T08:56:53;25.60;99.90
33077;DHT22;38790;51.964;5.924;2022-08-19T08:59:25;25.60;99.90
33077;DHT22;38790;51.964;5.924;2022-08-19T09:01:53;25.80;99.90
33077;DHT22;38790;51.964;5.924;2022-08-19T09:04:19;25.90;99.90
33077;DHT22;38790;51.964;5.924;2022-08-19T09:07:09;26.20;99.90
33077;DHT22;38790;51.964;5.924;2022-08-19T09:09:43;26.40;99.90
33077;DHT22;38790;51.964;5.924;2022-08-19T09:15:11;26.50;99.90
33077;DHT22;38790;51.964;5.924;2022-08-19T09:17:37;26.40;99.90
33077;DHT22;38790;51.964;5.924;2022-08-19T09:20:15;26.40;99.90
33077;DHT22;38790;51.964;5.924;2022-08-19T09:22:43;26.50;99.90
33077;DHT22;38790;51.964;5.924;2022-08-19T09:25:12;26.70;99.90
33077;DHT22;38790;51.964;5.924;2022-08-19T09:27:40;26.80;99.90
33077;DHT22;38790;51.964;5.924;2022-08-19T09:30:08;27.00;99.90
33077;DHT22;38790;51.964;5.924;2022-08-19T09:32:34;26.80;99.90
33077;DHT22;38790;51.964;5.924;2022-08-19T09:35:01;26.70;99.90
33077;DHT22;38790;51.964;5.924;2022-08-19T09:37:27;27.10;99.90
33077;DHT22;38790;51.964;5.924;2022-08-19T09:39:53;27.70;99.90
33077;DHT22;38790;51.964;5.924;2022-08-19T09:42:20;27.90;99.90
33077;DHT22;38790;51.964;5.924;2022-08-19T09:44:46;27.70;99.90
33077;DHT22;38790;51.964;5.924;2022-08-19T09:47:13;26.90;99.90
33077;DHT22;38790;51.964;5.924;2022-08-19T09:49:40;26.30;99.90
33077;DHT22;38790;51.964;5.924;2022-08-19T09:52:09;25.90;99.90
33077;DHT22;38790;51.964;5.924;2022-08-19T09:54:38;25.80;99.90
33077;DHT22;38790;51.964;5.924;2022-08-19T09:57:05;25.90;99.90
33077;DHT22;38790;51.964;5.924;2022-08-19T09:59:31;26.10;99.90
33077;DHT22;38790;51.964;5.924;2022-08-19T10:01:57;26.20;99.90
33077;DHT22;38790;51.964;5.924;2022-08-19T10:04:23;26.20;99.90
33077;DHT22;38790;51.964;5.924;2022-08-19T10:07:10;26.20;99.90
33077;DHT22;38790;51.964;5.924;2022-08-19T10:09:36;26.20;99.90
33077;DHT22;38790;51.964;5.924;2022-08-19T10:12:04;26.30;99.90
33077;DHT22;38790;51.964;5.924;2022-08-19T10:14:30;26.40;99.90
33077;DHT22;38790;51.964;5.924;2022-08-19T10:16:57;26.30;99.90
33077;DHT22;38790;51.964;5.924;2022-08-19T10:19:23;26.40;99.90
33077;DHT22;38790;51.964;5.924;2022-08-19T10:21:50;26.50;99.90
33077;DHT22;38790;51.964;5.924;2022-08-19T10:24:16;26.50;99.90
33077;DHT22;38790;51.964;5.924;2022-08-19T10:26:42;26.40;99.90
33077;DHT22;38790;51.964;5.924;2022-08-19T10:29:10;26.40;99.90
33077;DHT22;38790;51.964;5.924;2022-08-19T10:31:37;26.40;99.90
33077;DHT22;38790;51.964;5.924;2022-08-19T10:34:03;26.60;99.90
33077;DHT22;38790;51.964;5.924;2022-08-19T10:36:33;26.60;99.90
33077;DHT22;38790;51.964;5.924;2022-08-19T10:39:03;26.60;99.90
33077;DHT22;38790;51.964;5.924;2022-08-19T10:41:32;26.30;99.90
33077;DHT22;38790;51.964;5.924;2022-08-19T10:44:01;26.50;99.90
33077;DHT22;38790;51.964;5.924;2022-08-19T10:46:29;26.60;99.90
33077;DHT22;38790;51.964;5.924;2022-08-19T10:48:59;26.50;99.90
33077;DHT22;38790;51.964;5.924;2022-08-19T10:51:26;26.50;99.90
33077;DHT22;38790;51.964;5.924;2022-08-19T10:54:11;26.70;99.90
33077;DHT22;38790;51.964;5.924;2022-08-19T10:56:37;26.50;99.90
33077;DHT22;38790;51.964;5.924;2022-08-19T11:01:45;26.70;99.90
33077;DHT22;38790;51.964;5.924;2022-08-19T11:04:12;26.70;99.90
33077;DHT22;38790;51.964;5.924;2022-08-19T11:06:40;26.50;99.90
33077;DHT22;38790;51.964;5.924;2022-08-19T11:09:07;26.70;99.90
33077;DHT22;38790;51.964;5.924;2022-08-19T11:11:34;27.00;99.90
33077;DHT22;38790;51.964;5.924;2022-08-19T11:14:08;26.90;99.90
33077;DHT22;38790;51.964;5.924;2022-08-19T11:16:35;26.70;99.90
33077;DHT22;38790;51.964;5.924;2022-08-19T11:19:06;26.80;99.90
33077;DHT22;38790;51.964;5.924;2022-08-19T11:21:37;26.80;99.90
33077;DHT22;38790;51.964;5.924;2022-08-19T11:24:06;26.80;99.90
33077;DHT22;38790;51.964;5.924;2022-08-19T11:26:34;26.90;99.90
33077;DHT22;38790;51.964;5.924;2022-08-19T11:29:01;27.00;99.90
33077;DHT22;38790;51.964;5.924;2022-08-19T11:31:31;27.20;99.90
33077;DHT22;38790;51.964;5.924;2022-08-19T11:33:58;27.20;99.90
33077;DHT22;38790;51.964;5.924;2022-08-19T11:36:26;27.10;99.90
33077;DHT22;38790;51.964;5.924;2022-08-19T11:38:53;27.00;99.90
33077;DHT22;38790;51.964;5.924;2022-08-19T11:41:21;27.20;99.90
33077;DHT22;38790;51.964;5.924;2022-08-19T11:43:49;27.50;99.90
33077;DHT22;38790;51.964;5.924;2022-08-19T11:46:18;27.60;99.90
33077;DHT22;38790;51.964;5.924;2022-08-19T11:48:44;27.70;99.90
33077;DHT22;38790;51.964;5.924;2022-08-19T11:51:18;27.60;99.90
33077;DHT22;38790;51.964;5.924;2022-08-19T11:53:45;27.60;99.90
33077;DHT22;38790;51.964;5.924;2022-08-19T11:56:11;27.70;99.90
33077;DHT22;38790;51.964;5.924;2022-08-19T11:58:38;27.60;99.90
33077;DHT22;38790;51.964;5.924;2022-08-19T12:01:06;27.70;99.90
33077;DHT22;38790;51.964;5.924;2022-08-19T12:03:33;27.70;99.90
33077;DHT22;38790;51.964;5.924;2022-08-19T12:06:07;27.70;99.90
33077;DHT22;38790;51.964;5.924;2022-08-19T12:08:33;27.70;99.90
33077;DHT22;38790;51.964;5.924;2022-08-19T12:11:00;27.70;99.90
33077;DHT22;38790;51.964;5.924;2022-08-19T12:13:30;27.80;99.90
33077;DHT22;38790;51.964;5.924;2022-08-19T12:15:57;27.70;99.90
33077;DHT22;38790;51.964;5.924;2022-08-19T12:18:24;27.70;99.90
33077;DHT22;38790;51.964;5.924;2022-08-19T12:20:52;27.70;99.90
33077;DHT22;38790;51.964;5.924;2022-08-19T12:23:20;27.80;99.90
33077;DHT22;38790;51.964;5.924;2022-08-19T12:25:48;27.80;99.90
33077;DHT22;38790;51.964;5.924;2022-08-19T12:28:19;27.70;99.90
33077;DHT22;38790;51.964;5.924;2022-08-19T12:30:46;27.80;99.90
33077;DHT22;38790;51.964;5.924;2022-08-19T12:33:13;27.70;99.90
33077;DHT22;38790;51.964;5.924;2022-08-19T12:35:41;27.90;99.90
33077;DHT22;38790;51.964;5.924;2022-08-19T12:38:08;28.00;99.90
33077;DHT22;38790;51.964;5.924;2022-08-19T12:40:34;28.10;99.90
33077;DHT22;38790;51.964;5.924;2022-08-19T12:43:00;27.90;99.90
33077;DHT22;38790;51.964;5.924;2022-08-19T12:45:26;28.00;99.90
33077;DHT22;38790;51.964;5.924;2022-08-19T12:47:53;28.00;99.90
33077;DHT22;38790;51.964;5.924;2022-08-19T12:50:19;28.00;99.90
33077;DHT22;38790;51.964;5.924;2022-08-19T12:52:47;27.90;99.90
33077;DHT22;38790;51.964;5.924;2022-08-19T12:55:14;28.00;99.90
33077;DHT22;38790;51.964;5.924;2022-08-19T12:57:40;28.10;99.90
33077;DHT22;38790;51.964;5.924;2022-08-19T13:00:13;27.90;99.90
33077;DHT22;38790;51.964;5.924;2022-08-19T13:02:41;27.90;99.90
33077;DHT22;38790;51.964;5.924;2022-08-19T13:05:13;28.00;99.90
33077;DHT22;38790;51.964;5.924;2022-08-19T13:07:41;28.00;99.90
33077;DHT22;38790;51.964;5.924;2022-08-19T13:10:12;28.00;99.90
33077;DHT22;38790;51.964;5.924;2022-08-19T13:12:39;27.80;99.90
33077;DHT22;38790;51.964;5.924;2022-08-19T13:15:07;27.90;99.90
33077;DHT22;38790;51.964;5.924;2022-08-19T13:17:35;28.00;99.90
33077;DHT22;38790;51.964;5.924;2022-08-19T13:20:02;28.10;99.90
33077;DHT22;38790;51.964;5.924;2022-08-19T13:22:28;28.10;99.90
33077;DHT22;38790;51.964;5.924;2022-08-19T13:24:55;28.10;99.90
33077;DHT22;38790;51.964;5.924;2022-08-19T13:27:21;28.10;99.90
33077;DHT22;38790;51.964;5.924;2022-08-19T13:29:47;28.20;99.90
33077;DHT22;38790;51.964;5.924;2022-08-19T13:32:31;28.20;99.90
33077;DHT22;38790;51.964;5.924;2022-08-19T13:35:16;28.10;99.90
33077;DHT22;38790;51.964;5.924;2022-08-19T13:37:43;28.10;99.90
33077;DHT22;38790;51.964;5.924;2022-08-19T13:40:16;28.20;99.90
33077;DHT22;38790;51.964;5.924;2022-08-19T13:42:45;28.30;99.90
33077;DHT22;38790;51.964;5.924;2022-08-19T13:45:12;28.40;99.90
33077;DHT22;38790;51.964;5.924;2022-08-19T13:47:38;28.40;99.90
33077;DHT22;38790;51.964;5.924;2022-08-19T13:50:14;28.40;99.90
33077;DHT22;38790;51.964;5.924;2022-08-19T13:52:42;28.60;99.90
33077;DHT22;38790;51.964;5.924;2022-08-19T13:55:09;28.80;99.90
33077;DHT22;38790;51.964;5.924;2022-08-19T13:57:36;28.80;99.90
33077;DHT22;38790;51.964;5.924;2022-08-19T14:00:08;28.70;99.90
33077;DHT22;38790;51.964;5.924;2022-08-19T14:02:37;28.60;99.90
33077;DHT22;38790;51.964;5.924;2022-08-19T14:05:08;28.40;99.90
33077;DHT22;38790;51.964;5.924;2022-08-19T14:07:35;28.20;99.90
33077;DHT22;38790;51.964;5.924;2022-08-19T14:10:04;28.30;99.90
33077;DHT22;38790;51.964;5.924;2022-08-19T14:12:30;28.20;99.90
33077;DHT22;38790;51.964;5.924;2022-08-19T14:14:58;28.20;99.90
33077;DHT22;38790;51.964;5.924;2022-08-19T14:17:24;28.40;99.90
33077;DHT22;38790;51.964;5.924;2022-08-19T14:20:02;28.40;99.90
33077;DHT22;38790;51.964;5.924;2022-08-19T14:22:36;28.50;99.90
33077;DHT22;38790;51.964;5.924;2022-08-19T14:25:04;28.40;99.90
33077;DHT22;38790;51.964;5.924;2022-08-19T14:27:33;28.20;99.90
33077;DHT22;38790;51.964;5.924;2022-08-19T14:30:00;28.00;99.90
33077;DHT22;38790;51.964;5.924;2022-08-19T14:32:26;28.00;99.90
33077;DHT22;38790;51.964;5.924;2022-08-19T14:34:53;27.90;99.90
33077;DHT22;38790;51.964;5.924;2022-08-19T14:37:20;28.00;99.90
33077;DHT22;38790;51.964;5.924;2022-08-19T14:39:48;28.00;99.90
33077;DHT22;38790;51.964;5.924;2022-08-19T14:42:14;28.00;99.90
33077;DHT22;38790;51.964;5.924;2022-08-19T14:44:41;28.00;99.90
33077;DHT22;38790;51.964;5.924;2022-08-19T14:47:07;27.60;99.90
33077;DHT22;38790;51.964;5.924;2022-08-19T14:49:34;27.50;99.90
33077;DHT22;38790;51.964;5.924;2022-08-19T14:52:00;27.20;99.90
33077;DHT22;38790;51.964;5.924;2022-08-19T14:54:27;27.00;99.90
33077;DHT22;38790;51.964;5.924;2022-08-19T14:56:53;27.00;99.90
33077;DHT22;38790;51.964;5.924;2022-08-19T14:59:19;26.90;99.90
33077;DHT22;38790;51.964;5.924;2022-08-19T15:01:45;26.90;99.90
33077;DHT22;38790;51.964;5.924;2022-08-19T15:04:11;26.90;99.90
33077;DHT22;38790;51.964;5.924;2022-08-19T15:06:37;27.00;99.90
33077;DHT22;38790;51.964;5.924;2022-08-19T15:09:03;27.20;99.90
33077;DHT22;38790;51.964;5.924;2022-08-19T15:11:31;27.30;99.90
33077;DHT22;38790;51.964;5.924;2022-08-19T15:13:58;27.10;99.90
33077;DHT22;38790;51.964;5.924;2022-08-19T15:16:26;27.10;99.90
33077;DHT22;38790;51.964;5.924;2022-08-19T15:18:55;27.00;99.90
33077;DHT22;38790;51.964;5.924;2022-08-19T15:21:23;26.80;99.90
33077;DHT22;38790;51.964;5.924;2022-08-19T15:23:50;26.70;99.90
33077;DHT22;38790;51.964;5.924;2022-08-19T15:26:19;26.50;99.90
33077;DHT22;38790;51.964;5.924;2022-08-19T15:28:46;26.50;99.90
33077;DHT22;38790;51.964;5.924;2022-08-19T15:31:12;26.60;99.90
33077;DHT22;38790;51.964;5.924;2022-08-19T15:33:39;26.50;99.90
33077;DHT22;38790;51.964;5.924;2022-08-19T15:36:10;26.40;99.90
33077;DHT22;38790;51.964;5.924;2022-08-19T15:38:38;26.20;99.90
33077;DHT22;38790;51.964;5.924;2022-08-19T15:41:18;25.90;99.90
33077;DHT22;38790;51.964;5.924;2022-08-19T15:46:23;25.10;99.90
33077;DHT22;38790;51.964;5.924;2022-08-19T15:48:53;24.90;99.90
33077;DHT22;38790;51.964;5.924;2022-08-19T15:51:19;24.90;99.90
33077;DHT22;38790;51.964;5.924;2022-08-19T15:53:46;24.90;99.90
33077;DHT22;38790;51.964;5.924;2022-08-19T15:56:13;25.00;99.90
33077;DHT22;38790;51.964;5.924;2022-08-19T15:58:41;25.00;99.90